createdAt,value
2017-04-21T00:00:31.935Z,57.98
2017-04-21T00:01:29.813Z,57.92
2017-04-21T00:02:27.704Z,58.17
2017-04-21T00:03:25.547Z,58.24
2017-04-21T00:04:23.402Z,58.49
2017-04-21T00:05:21.273Z,58.00
2017-04-21T00:06:19.175Z,58.40
2017-04-21T00:07:17.080Z,58.08
2017-04-21T00:08:15.064Z,57.75
2017-04-21T00:09:12.952Z,57.95
2017-04-21T00:10:10.809Z,60.71
2017-04-21T00:11:08.708Z,63.13
2017-04-21T00:12:06.554Z,65.94
2017-04-21T00:13:04.564Z,67.65
2017-04-21T00:14:02.410Z,68.70
2017-04-21T00:15:00.331Z,69.94
2017-04-21T00:15:58.237Z,70.01
2017-04-21T00:16:56.110Z,71.70
2017-04-21T00:17:53.969Z,69.35
2017-04-21T00:18:51.899Z,67.99
2017-04-21T00:19:49.747Z,64.54
2017-04-21T00:20:47.635Z,63.40
2017-04-21T00:21:45.615Z,61.81
2017-04-21T00:22:43.454Z,60.95
2017-04-21T00:23:41.499Z,60.89
2017-04-21T00:24:39.402Z,60.43
2017-04-21T00:25:37.369Z,59.69
2017-04-21T00:26:35.233Z,59.48
2017-04-21T00:27:33.270Z,59.30
2017-04-21T00:28:31.128Z,58.79
2017-04-21T00:29:28.935Z,59.57
2017-04-21T00:30:26.739Z,59.65
2017-04-21T00:31:24.605Z,60.35
2017-04-21T00:32:22.492Z,60.56
2017-04-21T00:33:20.329Z,60.63
2017-04-21T00:34:18.380Z,60.08
2017-04-21T00:35:16.247Z,60.68
2017-04-21T00:36:14.096Z,61.06
2017-04-21T00:37:11.973Z,60.85
2017-04-21T00:38:09.851Z,60.85
2017-04-21T00:39:07.740Z,60.45
2017-04-21T00:40:05.657Z,59.90
2017-04-21T00:41:03.541Z,59.38
2017-04-21T00:42:01.414Z,60.28
2017-04-21T00:42:59.269Z,61.13
2017-04-21T00:43:57.156Z,61.01
2017-04-21T00:44:55.038Z,60.25
2017-04-21T00:45:52.888Z,60.05
2017-04-21T00:46:50.787Z,62.27
2017-04-21T00:47:48.645Z,60.83
2017-04-21T00:48:46.508Z,62.95
2017-04-21T00:49:44.350Z,63.87
2017-04-21T00:50:42.192Z,62.78
2017-04-21T00:51:40.044Z,65.36
2017-04-21T00:52:37.960Z,63.61
2017-04-21T00:53:35.857Z,63.23
2017-04-21T00:54:33.800Z,65.78
2017-04-21T00:55:31.616Z,63.97
2017-04-21T00:56:29.536Z,65.22
2017-04-21T00:57:27.420Z,65.63
2017-04-21T00:58:25.268Z,64.09
2017-04-21T00:59:23.232Z,63.86
2017-04-21T01:00:21.146Z,64.84
2017-04-21T01:01:19.055Z,63.03
2017-04-21T01:02:17.036Z,63.44
2017-04-21T01:03:14.929Z,63.70
2017-04-21T01:04:12.728Z,65.38
2017-04-21T01:05:10.708Z,64.17
2017-04-21T01:06:08.558Z,65.36
2017-04-21T01:07:06.419Z,66.23
2017-04-21T01:08:04.280Z,64.09
2017-04-21T01:09:02.184Z,62.00
2017-04-21T01:10:00.113Z,61.49
2017-04-21T01:10:58.024Z,64.50
2017-04-21T01:11:55.884Z,67.83
2017-04-21T01:12:53.776Z,69.88
2017-04-21T01:13:51.680Z,67.96
2017-04-21T01:14:49.493Z,66.30
2017-04-21T01:15:47.351Z,64.51
2017-04-21T01:16:45.233Z,63.72
2017-04-21T01:17:43.091Z,64.04
2017-04-21T01:18:41.019Z,63.54
2017-04-21T01:19:38.900Z,62.56
2017-04-21T01:20:36.715Z,61.93
2017-04-21T01:21:34.684Z,62.79
2017-04-21T01:22:32.528Z,62.24
2017-04-21T01:23:30.412Z,61.25
2017-04-21T01:24:28.272Z,61.52
2017-04-21T01:25:26.101Z,61.35
2017-04-21T01:26:24.048Z,62.18
2017-04-21T01:27:21.933Z,64.63
2017-04-21T01:28:19.837Z,63.36
2017-04-21T01:29:17.688Z,64.04
2017-04-21T01:30:15.625Z,63.78
2017-04-21T01:31:13.627Z,62.76
2017-04-21T01:32:11.482Z,61.89
2017-04-21T01:33:09.338Z,61.83
2017-04-21T01:34:07.167Z,61.14
2017-04-21T01:35:05.048Z,61.71
2017-04-21T01:36:02.935Z,61.62
2017-04-21T01:37:00.867Z,67.09
2017-04-21T01:37:58.724Z,69.23
2017-04-21T01:38:56.863Z,73.11
2017-04-21T01:39:54.809Z,71.02
2017-04-21T01:40:52.689Z,73.52
2017-04-21T01:41:50.524Z,70.36
2017-04-21T01:42:48.396Z,71.70
2017-04-21T01:43:46.233Z,70.41
2017-04-21T01:44:44.092Z,69.68
2017-04-21T01:45:41.960Z,66.41
2017-04-21T01:46:39.892Z,64.53
2017-04-21T01:47:37.741Z,63.32
2017-04-21T01:48:35.623Z,62.65
2017-04-21T01:49:33.513Z,62.51
2017-04-21T01:50:31.348Z,62.46
2017-04-21T01:51:29.156Z,62.20
2017-04-21T01:52:27.059Z,62.21
2017-04-21T01:53:24.920Z,61.49
2017-04-21T01:54:22.735Z,61.27
2017-04-21T01:55:20.600Z,61.15
2017-04-21T01:56:18.464Z,61.57
2017-04-21T01:57:16.396Z,61.35
2017-04-21T01:58:15.676Z,64.69
2017-04-21T01:59:13.526Z,64.15
2017-04-21T02:00:11.546Z,66.82
2017-04-21T02:11:58.387Z,69.37
2017-04-21T02:12:56.233Z,70.02
2017-04-21T02:13:54.144Z,72.24
2017-04-21T02:14:51.988Z,74.67
2017-04-21T02:15:49.788Z,76.07
2017-04-21T02:16:47.659Z,74.46
2017-04-21T02:17:45.535Z,69.33
2017-04-21T02:18:43.415Z,66.34
2017-04-21T02:19:41.243Z,64.94
2017-04-21T02:20:39.124Z,63.92
2017-04-21T02:21:36.999Z,63.09
2017-04-21T02:22:34.855Z,62.27
2017-04-21T02:23:32.804Z,62.76
2017-04-21T02:24:30.992Z,63.50
2017-04-21T02:25:28.814Z,63.33
2017-04-21T02:26:26.682Z,62.94
2017-04-21T02:27:24.505Z,62.84
2017-04-21T02:28:22.328Z,63.25
2017-04-21T02:29:20.155Z,63.29
2017-04-21T02:30:17.991Z,67.17
2017-04-21T02:31:15.826Z,66.62
2017-04-21T02:32:13.625Z,66.47
2017-04-21T02:33:11.572Z,70.24
2017-04-21T02:34:09.407Z,68.29
2017-04-21T02:35:07.347Z,66.75
2017-04-21T02:36:05.152Z,65.63
2017-04-21T02:37:03.097Z,64.96
2017-04-21T02:38:00.993Z,63.79
2017-04-21T02:38:58.793Z,63.89
2017-04-21T02:39:56.732Z,62.88
2017-04-21T02:40:54.566Z,65.86
2017-04-21T02:41:52.527Z,67.33
2017-04-21T02:42:50.462Z,64.83
2017-04-21T02:43:48.282Z,64.06
2017-04-21T02:44:46.148Z,64.21
2017-04-21T02:45:44.063Z,62.94
2017-04-21T02:46:41.963Z,62.95
2017-04-21T02:47:39.786Z,65.32
2017-04-21T02:48:37.654Z,68.80
2017-04-21T02:49:35.444Z,70.50
2017-04-21T02:50:33.507Z,73.83
2017-04-21T02:51:31.370Z,75.61
2017-04-21T02:52:29.288Z,76.25
2017-04-21T02:53:27.140Z,76.37
2017-04-21T02:54:25.031Z,75.75
2017-04-21T02:55:22.848Z,76.44
2017-04-21T02:56:20.723Z,75.70
2017-04-21T02:57:18.650Z,74.29
2017-04-21T02:58:16.527Z,70.60
2017-04-21T02:59:14.579Z,68.87
2017-04-21T03:00:12.475Z,66.74
2017-04-21T03:01:10.271Z,65.30
2017-04-21T03:02:08.126Z,64.73
2017-04-21T03:03:05.951Z,64.24
2017-04-21T03:04:03.924Z,64.63
2017-04-21T03:05:01.776Z,65.29
2017-04-21T03:05:59.595Z,64.64
2017-04-21T03:06:57.432Z,65.68
2017-04-21T03:07:55.284Z,66.12
2017-04-21T03:08:53.087Z,65.45
2017-04-21T03:09:50.855Z,64.86
2017-04-21T03:10:48.839Z,64.32
2017-04-21T03:11:46.692Z,63.50
2017-04-21T03:12:44.548Z,63.13
2017-04-21T03:13:42.459Z,62.78
2017-04-21T03:14:40.370Z,62.44
2017-04-21T03:15:38.184Z,62.48
2017-04-21T03:16:36.092Z,66.15
2017-04-21T03:17:34.035Z,67.50
2017-04-21T03:18:31.864Z,67.80
2017-04-21T03:19:29.741Z,68.95
2017-04-21T03:20:27.667Z,66.08
2017-04-21T03:21:25.544Z,69.10
2017-04-21T03:22:23.416Z,66.62
2017-04-21T03:23:21.252Z,65.95
2017-04-21T03:24:19.193Z,64.89
2017-04-21T03:25:17.061Z,67.04
2017-04-21T03:26:14.898Z,68.27
2017-04-21T03:27:12.793Z,66.52
2017-04-21T03:28:10.639Z,71.22
2017-04-21T03:29:08.539Z,72.26
2017-04-21T03:30:06.406Z,72.39
2017-04-21T03:31:04.368Z,68.33
2017-04-21T03:32:02.208Z,65.53
2017-04-21T03:33:00.030Z,64.44
2017-04-21T03:33:57.908Z,64.23
2017-04-21T03:34:55.724Z,63.58
2017-04-21T03:35:53.714Z,62.96
2017-04-21T03:36:51.541Z,63.18
2017-04-21T03:37:49.469Z,62.97
2017-04-21T03:38:47.369Z,63.54
2017-04-21T03:39:45.283Z,64.76
2017-04-21T03:40:43.122Z,67.17
2017-04-21T03:41:40.948Z,66.13
2017-04-21T03:42:38.859Z,67.37
2017-04-21T03:43:36.663Z,65.27
2017-04-21T03:44:34.671Z,64.50
2017-04-21T03:45:32.602Z,64.25
2017-04-21T03:46:30.468Z,66.86
2017-04-21T03:47:28.283Z,64.67
2017-04-21T03:48:26.121Z,64.23
2017-04-21T03:49:24.055Z,64.12
2017-04-21T03:50:21.882Z,63.62
2017-04-21T03:51:19.851Z,63.21
2017-04-21T03:52:17.732Z,63.69
2017-04-21T03:53:15.563Z,63.32
2017-04-21T03:54:13.492Z,68.51
2017-04-21T03:55:11.350Z,71.96
2017-04-21T03:56:09.237Z,69.64
2017-04-21T03:57:07.076Z,67.23
2017-04-21T03:58:05.046Z,65.45
2017-04-21T03:59:02.900Z,64.27
2017-04-21T04:00:00.727Z,63.52
2017-04-21T04:00:58.668Z,69.93
2017-04-21T04:01:56.523Z,70.50
2017-04-21T04:02:54.453Z,66.69
2017-04-21T04:03:52.256Z,65.09
2017-04-21T04:04:50.235Z,64.00
2017-04-21T04:05:48.066Z,64.35
2017-04-21T04:06:45.906Z,68.87
2017-04-21T04:07:43.786Z,70.59
2017-04-21T04:08:41.651Z,67.46
2017-04-21T04:09:39.579Z,65.53
2017-04-21T04:10:37.411Z,64.46
2017-04-21T04:11:35.488Z,63.97
2017-04-21T04:12:33.336Z,66.80
2017-04-21T04:13:31.167Z,64.63
2017-04-21T04:14:29.003Z,63.73
2017-04-21T04:15:26.847Z,64.32
2017-04-21T04:16:24.718Z,63.96
2017-04-21T04:17:22.629Z,64.28
2017-04-21T04:18:20.576Z,64.54
2017-04-21T04:19:18.376Z,64.21
2017-04-21T04:20:16.228Z,64.06
2017-04-21T04:21:14.133Z,64.06
2017-04-21T04:22:11.975Z,64.04
2017-04-21T04:23:09.999Z,64.26
2017-04-21T04:24:07.864Z,64.62
2017-04-21T04:25:05.845Z,64.71
2017-04-21T04:26:03.643Z,64.30
2017-04-21T04:27:01.477Z,64.58
2017-04-21T04:27:59.305Z,64.58
2017-04-21T04:28:57.115Z,69.13
2017-04-21T04:29:55.108Z,67.85
2017-04-21T04:30:52.931Z,71.08
2017-04-21T04:31:50.840Z,68.96
2017-04-21T04:32:48.729Z,67.07
2017-04-21T04:33:46.557Z,66.72
2017-04-21T04:34:44.859Z,65.87
2017-04-21T04:35:42.679Z,65.39
2017-04-21T04:36:40.529Z,65.14
2017-04-21T04:37:38.382Z,65.14
2017-04-21T04:38:36.220Z,64.80
2017-04-21T04:39:34.070Z,64.89
2017-04-21T04:40:31.898Z,70.00
2017-04-21T04:41:29.722Z,69.31
2017-04-21T04:42:27.549Z,69.65
2017-04-21T04:43:25.438Z,69.78
2017-04-21T04:44:23.276Z,69.71
2017-04-21T04:45:21.331Z,70.08
2017-04-21T04:46:19.160Z,70.08
2017-04-21T04:47:17.020Z,70.70
2017-04-21T04:48:14.901Z,72.94
2017-04-21T04:49:12.706Z,73.79
2017-04-21T04:50:10.705Z,73.52
2017-04-21T04:51:08.537Z,73.97
2017-04-21T04:52:06.484Z,72.09
2017-04-21T04:53:04.351Z,73.49
2017-04-21T04:54:02.262Z,72.71
2017-04-21T04:55:00.120Z,69.79
2017-04-21T04:55:58.013Z,70.97
2017-04-21T04:56:55.895Z,68.07
2017-04-21T04:57:53.692Z,66.96
2017-04-21T04:58:51.499Z,65.90
2017-04-21T04:59:49.334Z,65.70
2017-04-21T05:00:47.380Z,65.12
2017-04-21T05:01:45.233Z,64.95
2017-04-21T05:02:43.054Z,64.33
2017-04-21T05:03:40.989Z,63.90
2017-04-21T05:04:38.812Z,64.28
2017-04-21T05:05:36.734Z,63.95
2017-04-21T05:06:34.533Z,64.05
2017-04-21T05:07:32.564Z,64.45
2017-04-21T05:08:30.371Z,64.67
2017-04-21T05:09:28.191Z,64.38
2017-04-21T05:10:26.127Z,64.92
2017-04-21T05:11:24.005Z,67.29
2017-04-21T05:12:21.887Z,65.46
2017-04-21T05:13:19.682Z,64.37
2017-04-21T05:14:17.666Z,64.36
2017-04-21T05:15:15.588Z,64.15
2017-04-21T05:16:15.007Z,67.94
2017-04-21T05:17:12.819Z,64.63
2017-04-21T05:18:10.816Z,67.91
2017-04-21T05:19:08.631Z,64.96
2017-04-21T05:20:06.483Z,64.23
2017-04-21T05:21:04.281Z,64.08
2017-04-21T05:22:02.148Z,63.65
2017-04-21T05:22:59.973Z,63.59
2017-04-21T05:23:57.924Z,63.86
2017-04-21T05:24:55.749Z,67.48
2017-04-21T05:25:53.579Z,64.36
2017-04-21T05:26:51.482Z,63.46
2017-04-21T05:27:49.336Z,63.64
2017-04-21T05:28:47.297Z,63.22
2017-04-21T05:29:45.106Z,63.95
2017-04-21T05:30:50.827Z,63.87
2017-04-21T05:31:48.699Z,63.18
2017-04-21T05:32:46.580Z,63.17
2017-04-21T05:33:44.464Z,63.07
2017-04-21T05:34:42.361Z,63.15
2017-04-21T05:35:40.184Z,63.28
2017-04-21T05:36:38.139Z,62.88
2017-04-21T05:37:37.809Z,61.75
2017-04-21T05:38:35.712Z,63.07
2017-04-21T05:39:33.552Z,62.76
2017-04-21T05:40:31.379Z,62.24
2017-04-21T05:41:29.300Z,62.11
2017-04-21T05:42:27.165Z,62.34
2017-04-21T05:43:24.989Z,62.17
2017-04-21T05:44:22.772Z,62.50
2017-04-21T05:45:20.596Z,62.17
2017-04-21T05:46:18.388Z,61.92
2017-04-21T05:47:16.296Z,62.82
2017-04-21T05:48:14.137Z,62.22
2017-04-21T05:49:12.006Z,62.56
2017-04-21T05:50:09.859Z,64.13
2017-04-21T05:51:07.790Z,62.46
2017-04-21T05:52:05.627Z,62.01
2017-04-21T05:53:03.611Z,61.83
2017-04-21T05:54:01.432Z,62.02
2017-04-21T05:54:59.237Z,62.31
2017-04-21T05:55:57.178Z,62.98
2017-04-21T05:56:55.035Z,62.41
2017-04-21T05:57:53.005Z,62.04
2017-04-21T05:58:50.832Z,61.80
2017-04-21T05:59:48.783Z,62.12
2017-04-21T06:00:46.632Z,62.14
2017-04-21T06:01:44.480Z,62.07
2017-04-21T06:02:42.383Z,62.16
2017-04-21T06:03:40.273Z,62.00
2017-04-21T06:04:38.160Z,64.37
2017-04-21T06:05:36.057Z,62.14
2017-04-21T06:06:33.903Z,62.69
2017-04-21T06:07:31.747Z,61.97
2017-04-21T06:08:29.576Z,61.66
2017-04-21T06:09:27.503Z,60.97
2017-04-21T06:10:25.372Z,64.30
2017-04-21T06:11:23.277Z,61.94
2017-04-21T06:12:21.219Z,61.61
2017-04-21T06:13:19.173Z,61.20
2017-04-21T06:14:17.005Z,61.02
2017-04-21T06:15:14.874Z,61.23
2017-04-21T06:16:12.723Z,61.18
2017-04-21T06:17:10.557Z,61.27
2017-04-21T06:18:08.462Z,62.62
2017-04-21T06:19:06.342Z,61.53
2017-04-21T06:20:04.335Z,63.80
2017-04-21T06:21:02.192Z,64.28
2017-04-21T06:22:00.040Z,61.17
2017-04-21T06:22:58.010Z,63.69
2017-04-21T06:23:55.845Z,62.68
2017-04-21T06:24:53.701Z,61.36
2017-04-21T06:25:51.551Z,61.10
2017-04-21T06:26:49.508Z,60.70
2017-04-21T06:27:47.376Z,62.04
2017-04-21T06:28:45.228Z,61.22
2017-04-21T06:29:43.117Z,60.30
2017-04-21T06:30:40.957Z,60.55
2017-04-21T06:31:38.846Z,60.07
2017-04-21T06:32:36.692Z,60.19
2017-04-21T06:33:34.631Z,60.11
2017-04-21T06:34:32.520Z,59.87
2017-04-21T06:35:30.393Z,59.25
2017-04-21T06:36:28.303Z,59.26
2017-04-21T06:37:26.230Z,60.91
2017-04-21T06:38:24.094Z,59.92
2017-04-21T06:39:22.006Z,59.72
2017-04-21T06:40:20.174Z,59.66
2017-04-21T06:41:19.513Z,59.50
2017-04-21T06:42:17.556Z,59.16
2017-04-21T06:43:23.812Z,59.18
2017-04-21T06:44:28.286Z,60.64
2017-04-21T06:45:26.931Z,57.90
2017-04-21T06:46:30.435Z,58.61
2017-04-21T06:47:29.648Z,58.76
2017-04-21T06:48:28.783Z,57.45
2017-04-21T06:49:27.576Z,57.96
2017-04-21T06:50:40.918Z,59.39
2017-04-21T06:51:39.199Z,58.21
2017-04-21T06:52:38.401Z,58.38
2017-04-21T06:53:36.961Z,57.96
2017-04-21T06:54:36.195Z,56.68
2017-04-21T06:55:39.426Z,55.74
2017-04-21T06:56:43.348Z,56.03
2017-04-21T06:57:41.488Z,56.14
2017-04-21T06:58:40.439Z,55.23
2017-04-21T06:59:38.537Z,55.07
2017-04-21T07:00:42.660Z,54.90
2017-04-21T07:01:41.408Z,54.00
2017-04-21T07:02:57.403Z,55.01
2017-04-21T07:03:56.063Z,54.94
2017-04-21T07:04:55.680Z,55.19
2017-04-21T07:06:01.373Z,53.88
2017-04-21T07:07:08.704Z,54.03
2017-04-21T07:08:13.304Z,53.85
2017-04-21T07:09:13.952Z,54.47
2017-04-21T07:10:12.046Z,54.98
2017-04-21T07:11:11.347Z,54.64
2017-04-21T07:12:09.471Z,56.26
2017-04-21T07:13:19.847Z,55.01
2017-04-21T07:14:19.823Z,54.39
2017-04-21T07:15:19.701Z,54.54
2017-04-21T07:16:19.631Z,54.94
2017-04-21T07:17:18.896Z,52.86
2017-04-21T07:18:22.334Z,53.90
2017-04-21T07:19:20.446Z,53.83
2017-04-21T07:20:19.218Z,53.37
2017-04-21T07:21:22.679Z,54.00
2017-04-21T07:22:21.253Z,54.18
2017-04-21T07:23:34.022Z,53.91
2017-04-21T07:24:32.412Z,53.04
2017-04-21T07:25:32.401Z,53.66
2017-04-21T07:26:40.884Z,53.06
2017-04-21T07:27:39.636Z,52.40
2017-04-21T07:28:38.579Z,52.46
2017-04-21T07:29:41.676Z,52.08
2017-04-21T07:30:41.196Z,52.19
2017-04-21T07:31:40.944Z,51.92
2017-04-21T07:32:39.003Z,51.90
2017-04-21T07:33:38.387Z,52.05
2017-04-21T07:34:37.479Z,51.75
2017-04-21T07:36:40.061Z,51.33
2017-04-21T07:37:40.679Z,52.31
2017-04-21T07:38:40.414Z,51.88
2017-04-21T07:39:40.426Z,51.83
2017-04-21T07:40:43.776Z,51.26
2017-04-21T07:41:58.034Z,51.35
2017-04-21T07:42:59.290Z,50.59
2017-04-21T07:43:57.879Z,51.02
2017-04-21T07:44:57.236Z,50.95
2017-04-21T07:46:00.852Z,50.92
2017-04-21T07:46:59.535Z,50.27
2017-04-21T07:47:58.788Z,51.97
2017-04-21T07:48:58.293Z,50.82
2017-04-21T07:49:57.604Z,49.50
2017-04-21T07:50:57.383Z,51.52
2017-04-21T07:52:01.037Z,50.80
2017-04-21T07:53:05.295Z,49.48
2017-04-21T07:54:06.886Z,50.44
2017-04-21T07:55:05.664Z,49.87
2017-04-21T07:56:05.238Z,50.38
2017-04-21T07:57:04.200Z,50.05
2017-04-21T07:58:03.640Z,49.90
2017-04-21T07:59:02.511Z,50.65
2017-04-21T08:01:20.196Z,50.18
2017-04-21T08:01:31.431Z,51.39
2017-04-21T08:01:58.129Z,50.88
2017-04-21T08:02:57.057Z,50.96
2017-04-21T08:03:55.846Z,50.79
2017-04-21T08:04:54.389Z,50.89
2017-04-21T08:05:52.527Z,50.46
2017-04-21T08:06:56.441Z,50.37
2017-04-21T08:07:55.316Z,50.76
2017-04-21T08:08:54.071Z,50.21
2017-04-21T08:09:53.471Z,52.05
2017-04-21T08:10:52.728Z,50.87
2017-04-21T08:11:53.227Z,50.47
2017-04-21T08:12:52.591Z,50.08
2017-04-21T08:13:51.135Z,50.07
2017-04-21T08:14:55.675Z,50.42
2017-04-21T08:15:59.456Z,50.12
2017-04-21T08:17:04.351Z,50.66
2017-04-21T08:18:02.634Z,50.67
2017-04-21T08:19:07.463Z,50.89
2017-04-21T08:20:12.238Z,50.96
2017-04-21T08:21:14.619Z,51.09
2017-04-21T08:22:13.235Z,50.60
2017-04-21T08:23:17.524Z,50.58
2017-04-21T08:24:17.535Z,50.81
2017-04-21T08:25:23.441Z,50.56
2017-04-21T08:26:27.240Z,50.38
2017-04-21T08:27:31.003Z,50.52
2017-04-21T08:28:29.854Z,50.98
2017-04-21T08:29:28.888Z,50.78
2017-04-21T08:30:32.459Z,50.82
2017-04-21T08:31:42.548Z,50.80
2017-04-21T08:32:41.028Z,51.04
2017-04-21T08:33:39.308Z,51.22
2017-04-21T08:34:37.392Z,51.18
2017-04-21T08:35:36.062Z,51.49
2017-04-21T08:36:39.476Z,51.15
2017-04-21T08:37:39.040Z,50.88
2017-04-21T08:38:42.488Z,50.51
2017-04-21T08:39:47.020Z,50.53
2017-04-21T08:40:45.118Z,50.98
2017-04-21T08:41:44.604Z,50.72
2017-04-21T08:42:43.944Z,51.09
2017-04-21T08:43:43.619Z,50.72
2017-04-21T08:44:43.324Z,50.75
2017-04-21T08:45:47.403Z,50.90
2017-04-21T08:46:51.587Z,50.51
2017-04-21T08:47:50.325Z,50.62
2017-04-21T08:48:48.495Z,50.44
2017-04-21T08:49:46.704Z,50.32
2017-04-21T08:50:50.969Z,50.70
2017-04-21T08:51:49.901Z,50.91
2017-04-21T08:52:48.442Z,51.01
2017-04-21T08:53:52.868Z,50.58
2017-04-21T08:54:57.025Z,51.35
2017-04-21T08:55:55.775Z,51.42
2017-04-21T08:56:55.308Z,51.09
2017-04-21T08:57:54.021Z,51.06
2017-04-21T08:58:53.642Z,50.91
2017-04-21T08:59:53.016Z,50.34
2017-04-21T09:00:57.032Z,50.57
2017-04-21T09:02:01.963Z,50.68
2017-04-21T09:03:00.527Z,50.57
2017-04-21T09:03:59.480Z,50.35
2017-04-21T09:05:00.014Z,50.34
2017-04-21T09:05:59.288Z,50.04
2017-04-21T09:07:03.691Z,49.89
2017-04-21T09:08:01.815Z,50.34
2017-04-21T09:09:06.466Z,50.77
2017-04-21T09:10:05.198Z,50.37
2017-04-21T09:11:05.303Z,50.27
2017-04-21T09:12:10.619Z,50.32
2017-04-21T09:13:09.608Z,49.93
2017-04-21T09:14:08.699Z,50.30
2017-04-21T09:15:12.392Z,50.86
2017-04-21T09:16:12.114Z,50.13
2017-04-21T09:17:11.680Z,49.97
2017-04-21T09:18:10.152Z,50.67
2017-04-21T09:19:08.835Z,50.03
2017-04-21T09:20:07.177Z,49.83
2017-04-21T09:21:05.269Z,50.09
2017-04-21T09:22:04.013Z,50.02
2017-04-21T09:23:02.633Z,51.42
2017-04-21T09:24:01.274Z,50.12
2017-04-21T09:25:00.652Z,49.88
2017-04-21T09:26:00.220Z,50.57
2017-04-21T09:26:59.681Z,50.32
2017-04-21T09:27:58.829Z,50.30
2017-04-21T09:28:57.788Z,50.37
2017-04-21T09:29:56.718Z,49.92
2017-04-21T09:31:02.817Z,50.89
2017-04-21T09:31:54.620Z,50.37
2017-04-21T09:32:52.896Z,50.66
2017-04-21T09:33:52.445Z,50.82
2017-04-21T09:35:34.397Z,50.81
2017-04-21T09:35:50.293Z,51.17
2017-04-21T09:36:49.673Z,50.80
2017-04-21T09:37:48.526Z,50.74
2017-04-21T09:38:47.293Z,51.82
2017-04-21T09:39:45.517Z,51.22
2017-04-21T09:40:50.786Z,50.67
2017-04-21T09:41:49.526Z,51.23
2017-04-21T09:42:54.160Z,51.11
2017-04-21T09:43:52.890Z,50.96
2017-04-21T09:44:52.152Z,50.51
2017-04-21T09:45:51.769Z,50.86
2017-04-21T09:46:51.044Z,52.19
2017-04-21T09:47:50.087Z,51.96
2017-04-21T09:48:48.437Z,51.78
2017-04-21T09:49:47.083Z,51.45
2017-04-21T09:50:45.132Z,51.62
2017-04-21T09:53:46.274Z,51.54
2017-04-21T09:56:04.955Z,52.70
2017-04-21T09:56:05.052Z,51.37
2017-04-21T09:57:02.409Z,51.40
2017-04-21T09:58:30.465Z,51.36
2017-04-21T09:59:53.505Z,51.63
2017-04-21T10:01:22.007Z,51.50
2017-04-21T10:02:28.037Z,51.80
2017-04-21T10:03:07.834Z,51.86
2017-04-21T10:03:46.858Z,52.88
2017-04-21T10:04:49.197Z,51.37
2017-04-21T10:04:53.981Z,52.12
2017-04-21T10:06:33.789Z,51.75
2017-04-21T10:07:29.917Z,51.54
2017-04-21T10:07:39.271Z,51.66
2017-04-21T10:07:42.293Z,51.83
2017-04-21T10:08:22.015Z,52.50
2017-04-21T10:08:28.863Z,51.22
2017-04-21T10:09:33.857Z,52.20
2017-04-21T10:10:38.116Z,51.77
2017-04-21T10:11:37.162Z,51.75
2017-04-21T10:12:35.726Z,51.41
2017-04-21T10:13:33.970Z,51.82
2017-04-21T10:14:32.431Z,51.13
2017-04-21T10:15:36.144Z,51.07
2017-04-21T10:16:40.644Z,51.12
2017-04-21T10:17:42.821Z,50.85
2017-04-21T10:18:40.902Z,51.25
2017-04-21T10:19:40.412Z,50.69
2017-04-21T10:20:45.742Z,50.80
2017-04-21T10:21:49.649Z,51.02
2017-04-21T10:22:48.292Z,51.05
2017-04-21T10:23:48.005Z,51.13
2017-04-21T10:24:47.350Z,52.01
2017-04-21T10:25:46.292Z,52.03
2017-04-21T10:26:46.005Z,51.84
2017-04-21T10:27:44.593Z,51.51
2017-04-21T10:28:43.737Z,51.62
2017-04-21T10:29:43.081Z,52.26
2017-04-21T10:30:41.962Z,51.16
2017-04-21T10:31:40.647Z,50.78
2017-04-21T10:32:39.664Z,50.76
2017-04-21T10:33:39.056Z,52.41
2017-04-21T10:34:38.891Z,51.28
2017-04-21T10:35:38.843Z,50.69
2017-04-21T10:36:37.563Z,50.60
2017-04-21T10:37:36.632Z,50.86
2017-04-21T10:38:36.626Z,50.87
2017-04-21T10:39:35.268Z,50.94
2017-04-21T10:40:34.254Z,50.56
2017-04-21T10:41:39.409Z,51.25
2017-04-21T10:42:37.680Z,51.03
2017-04-21T10:43:37.980Z,51.14
2017-04-21T10:44:41.224Z,51.17
2017-04-21T10:45:45.179Z,51.15
2017-04-21T10:46:44.224Z,50.59
2017-04-21T10:47:44.297Z,50.64
2017-04-21T10:48:43.500Z,50.18
2017-04-21T10:49:47.881Z,51.51
2017-04-21T10:50:51.324Z,51.16
2017-04-21T10:51:50.652Z,51.12
2017-04-21T10:52:55.672Z,50.82
2017-04-21T10:53:55.189Z,50.19
2017-04-21T10:54:53.367Z,51.55
2017-04-21T10:55:51.752Z,50.68
2017-04-21T10:56:50.106Z,50.24
2017-04-21T10:57:48.713Z,49.38
2017-04-21T10:58:47.080Z,49.68
2017-04-21T10:59:45.220Z,50.12
2017-04-21T11:00:43.619Z,50.26
2017-04-21T11:01:47.637Z,49.69
2017-04-21T11:02:47.629Z,50.50
2017-04-21T11:03:51.393Z,51.35
2017-04-21T11:04:49.979Z,50.64
2017-04-21T11:05:49.109Z,50.36
2017-04-21T11:06:47.844Z,49.91
2017-04-21T11:07:51.289Z,49.78
2017-04-21T11:08:49.593Z,49.46
2017-04-21T11:09:48.580Z,49.11
2017-04-21T11:10:56.464Z,50.95
2017-04-21T11:11:55.867Z,50.78
2017-04-21T11:12:55.052Z,50.01
2017-04-21T11:13:53.421Z,49.90
2017-04-21T11:14:52.016Z,50.19
2017-04-21T11:15:52.103Z,49.55
2017-04-21T11:16:51.300Z,49.95
2017-04-21T11:17:51.546Z,50.86
2017-04-21T11:18:50.956Z,50.09
2017-04-21T11:19:49.515Z,50.03
2017-04-21T11:20:48.469Z,49.74
2017-04-21T11:21:52.337Z,49.89
2017-04-21T11:22:54.392Z,50.68
2017-04-21T11:23:59.845Z,50.93
2017-04-21T11:25:00.209Z,50.75
2017-04-21T11:25:58.883Z,51.88
2017-04-21T11:26:58.335Z,51.75
2017-04-21T11:27:57.966Z,51.32
2017-04-21T11:28:55.960Z,50.54
2017-04-21T11:29:54.589Z,50.27
2017-04-21T11:30:53.880Z,50.24
2017-04-21T11:31:52.118Z,50.30
2017-04-21T11:32:54.628Z,51.25
2017-04-21T11:33:54.192Z,51.34
2017-04-21T11:34:52.840Z,51.42
2017-04-21T11:35:57.002Z,51.81
2017-04-21T11:36:55.180Z,50.52
2017-04-21T11:37:53.545Z,51.25
2017-04-21T11:38:52.336Z,50.48
2017-04-21T11:39:51.196Z,50.99
2017-04-21T11:40:49.168Z,51.77
2017-04-21T11:41:47.584Z,51.70
2017-04-21T11:42:51.760Z,51.58
2017-04-21T11:43:56.561Z,51.31
2017-04-21T11:44:55.418Z,51.61
2017-04-21T11:45:59.187Z,51.88
2017-04-21T11:47:03.163Z,51.51
2017-04-21T11:48:01.356Z,51.90
2017-04-21T11:49:03.917Z,51.97
2017-04-21T11:50:02.234Z,52.73
2017-04-21T11:51:00.461Z,52.39
2017-04-21T11:52:05.739Z,51.56
2017-04-21T11:53:06.639Z,52.89
2017-04-21T11:54:06.813Z,52.55
2017-04-21T11:55:07.476Z,51.91
2017-04-21T11:56:07.382Z,51.97
2017-04-21T11:57:05.482Z,51.78
2017-04-21T11:58:06.632Z,51.02
2017-04-21T11:59:05.148Z,51.01
2017-04-21T12:00:04.283Z,51.84
2017-04-21T12:01:03.036Z,51.96
2017-04-21T12:02:01.690Z,51.66
2017-04-21T12:03:01.242Z,52.36
2017-04-21T12:04:01.723Z,52.49
2017-04-21T12:05:05.597Z,52.29
2017-04-21T12:06:09.776Z,51.95
2017-04-21T12:07:08.676Z,53.03
2017-04-21T12:08:09.779Z,52.01
2017-04-21T12:09:13.991Z,52.10
2017-04-21T12:10:12.780Z,52.84
2017-04-21T12:11:13.403Z,52.87
2017-04-21T12:12:13.134Z,52.10
2017-04-21T12:13:12.280Z,51.87
2017-04-21T12:14:12.657Z,54.28
2017-04-21T12:15:11.467Z,52.03
2017-04-21T12:16:11.441Z,51.48
2017-04-21T12:17:10.581Z,51.86
2017-04-21T12:18:15.881Z,51.89
2017-04-21T12:19:14.438Z,51.90
2017-04-21T12:20:18.672Z,51.48
2017-04-21T12:21:18.059Z,51.00
2017-04-21T12:22:17.087Z,51.56
2017-04-21T12:23:20.861Z,52.40
2017-04-21T12:24:25.316Z,51.66
2017-04-21T12:25:23.629Z,51.55
2017-04-21T12:26:22.437Z,51.40
2017-04-21T12:27:26.579Z,51.00
2017-04-21T12:28:26.292Z,50.67
2017-04-21T12:29:25.715Z,51.11
2017-04-21T12:30:29.777Z,51.31
2017-04-21T12:31:29.156Z,50.69
2017-04-21T12:32:33.167Z,50.41
2017-04-21T12:33:32.892Z,50.75
2017-04-21T12:34:32.286Z,50.36
2017-04-21T12:35:30.111Z,50.65
2017-04-21T12:36:28.020Z,50.50
2017-04-21T12:37:26.108Z,50.85
2017-04-21T12:38:23.975Z,50.63
2017-04-21T12:39:21.843Z,50.21
2017-04-21T12:40:19.710Z,49.92
2017-04-21T12:41:17.585Z,49.93
2017-04-21T12:42:15.443Z,50.56
2017-04-21T12:43:13.290Z,50.75
2017-04-21T12:44:11.138Z,50.98
2017-04-21T12:45:09.130Z,51.73
2017-04-21T12:46:06.999Z,51.10
2017-04-21T12:47:04.958Z,50.79
2017-04-21T12:48:02.822Z,51.08
2017-04-21T12:49:01.871Z,50.54
2017-04-21T12:49:59.764Z,49.82
2017-04-21T12:50:57.633Z,51.14
2017-04-21T12:51:55.518Z,51.03
2017-04-21T12:52:53.396Z,50.82